createdAt,value
2023-04-18T00:00:38.563Z,506.00
2023-04-18T00:01:38.720Z,504.00
2023-04-18T00:02:38.902Z,506.00
2023-04-18T00:03:39.059Z,503.00
2023-04-18T00:04:38.813Z,506.00
2023-04-18T00:05:38.769Z,503.00
2023-04-18T00:06:38.869Z,502.00
2023-04-18T00:07:38.882Z,502.00
2023-04-18T00:08:38.932Z,501.00
2023-04-18T00:09:38.999Z,502.00
2023-04-18T00:10:39.017Z,502.00
2023-04-18T00:11:39.099Z,500.00
2023-04-18T00:12:39.143Z,505.00
2023-04-18T00:13:39.170Z,506.00
2023-04-18T00:14:39.237Z,503.00
2023-04-18T00:15:39.304Z,506.00
2023-04-18T00:16:39.379Z,503.00
2023-04-18T00:17:39.418Z,501.00
2023-04-18T00:18:39.418Z,501.00
2023-04-18T00:19:39.469Z,504.00
2023-04-18T00:20:39.537Z,503.00
2023-04-18T00:21:39.614Z,502.00
2023-04-18T00:22:39.642Z,500.00
2023-04-18T00:23:39.692Z,503.00
2023-04-18T00:24:39.751Z,502.00
2023-04-18T00:25:39.762Z,501.00
2023-04-18T00:26:39.817Z,500.00
2023-04-18T00:27:39.863Z,503.00
2023-04-18T00:28:39.923Z,503.00
2023-04-18T00:29:39.951Z,502.00
2023-04-18T00:30:40.092Z,504.00
2023-04-18T00:31:40.037Z,507.00
2023-04-18T00:32:40.155Z,502.00
2023-04-18T00:33:40.162Z,502.00
2023-04-18T00:34:40.199Z,506.00
2023-04-18T00:35:40.270Z,508.00
2023-04-18T00:36:40.313Z,504.00
2023-04-18T00:37:40.364Z,503.00
2023-04-18T00:38:40.374Z,502.00
2023-04-18T00:39:40.431Z,505.00
2023-04-18T00:40:40.488Z,505.00
2023-04-18T00:41:40.524Z,504.00
2023-04-18T00:42:40.615Z,503.00
2023-04-18T00:43:40.626Z,503.00
2023-04-18T00:44:40.674Z,502.00
2023-04-18T00:45:40.741Z,502.00
2023-04-18T00:46:41.014Z,502.00
2023-04-18T00:47:40.953Z,501.00
2023-04-18T00:48:40.870Z,505.00
2023-04-18T00:49:40.918Z,508.00
2023-04-18T00:50:40.965Z,506.00
2023-04-18T00:51:41.002Z,506.00
2023-04-18T00:52:41.057Z,503.00
2023-04-18T00:53:41.117Z,504.00
2023-04-18T00:54:41.196Z,504.00
2023-04-18T00:55:41.239Z,506.00
2023-04-18T00:56:41.291Z,502.00
2023-04-18T00:57:41.307Z,506.00
2023-04-18T00:58:41.354Z,508.00
2023-04-18T00:59:41.473Z,509.00
2023-04-18T01:00:41.464Z,506.00
2023-04-18T01:01:41.578Z,505.00
2023-04-18T01:02:41.661Z,504.00
2023-04-18T01:03:41.891Z,509.00
2023-04-18T01:04:41.685Z,509.00
2023-04-18T01:05:41.782Z,506.00
2023-04-18T01:06:41.786Z,503.00
2023-04-18T01:07:41.903Z,502.00
2023-04-18T01:08:41.879Z,505.00
2023-04-18T01:09:41.925Z,504.00
2023-04-18T01:10:41.982Z,504.00
2023-04-18T01:11:42.119Z,506.00
2023-04-18T01:12:42.066Z,504.00
2023-04-18T01:13:42.126Z,503.00
2023-04-18T01:14:42.179Z,505.00
2023-04-18T01:15:42.223Z,501.00
2023-04-18T01:16:42.266Z,505.00
2023-04-18T01:17:42.437Z,504.00
2023-04-18T01:18:42.365Z,503.00
2023-04-18T01:19:42.381Z,506.00
2023-04-18T01:20:42.461Z,506.00
2023-04-18T01:21:42.496Z,507.00
2023-04-18T01:22:42.557Z,506.00
2023-04-18T01:23:42.603Z,506.00
2023-04-18T01:24:42.659Z,506.00
2023-04-18T01:25:42.711Z,504.00
2023-04-18T01:26:42.743Z,504.00
2023-04-18T01:27:42.808Z,505.00
2023-04-18T01:28:42.864Z,507.00
2023-04-18T01:29:42.925Z,504.00
2023-04-18T01:30:42.972Z,502.00
2023-04-18T01:31:43.147Z,507.00
2023-04-18T01:32:43.095Z,505.00
2023-04-18T01:33:43.111Z,505.00
2023-04-18T01:34:43.140Z,504.00
2023-04-18T01:35:43.224Z,500.00
2023-04-18T01:36:43.226Z,505.00
2023-04-18T01:37:43.282Z,503.00
2023-04-18T01:38:43.341Z,504.00
2023-04-18T01:39:43.389Z,506.00
2023-04-18T01:40:43.469Z,509.00
2023-04-18T01:41:43.500Z,509.00
2023-04-18T01:42:43.553Z,506.00
2023-04-18T01:43:43.628Z,502.00
2023-04-18T01:44:43.650Z,507.00
2023-04-18T01:45:43.726Z,505.00
2023-04-18T01:46:43.768Z,504.00
2023-04-18T01:47:43.906Z,503.00
2023-04-18T01:48:43.896Z,504.00
2023-04-18T01:49:43.921Z,507.00
2023-04-18T01:50:43.978Z,505.00
2023-04-18T01:51:43.997Z,508.00
2023-04-18T01:52:44.071Z,505.00
2023-04-18T01:53:44.153Z,506.00
2023-04-18T01:54:44.186Z,505.00
2023-04-18T01:55:44.257Z,511.00
2023-04-18T01:56:44.296Z,506.00
2023-04-18T01:57:44.365Z,508.00
2023-04-18T01:58:44.434Z,505.00
2023-04-18T01:59:44.455Z,503.00
2023-04-18T02:00:44.556Z,505.00
2023-04-18T02:01:44.560Z,508.00
2023-04-18T02:02:44.734Z,506.00
2023-04-18T02:03:44.822Z,507.00
2023-04-18T02:04:44.734Z,506.00
2023-04-18T02:05:44.744Z,503.00
2023-04-18T02:06:44.787Z,507.00
2023-04-18T02:07:44.913Z,508.00
2023-04-18T02:08:44.941Z,507.00
2023-04-18T02:09:44.948Z,505.00
2023-04-18T02:10:44.996Z,501.00
2023-04-18T02:11:45.069Z,506.00
2023-04-18T02:12:45.141Z,506.00
2023-04-18T02:13:45.245Z,505.00
2023-04-18T02:14:45.211Z,503.00
2023-04-18T02:15:45.255Z,500.00
2023-04-18T02:16:45.359Z,500.00
2023-04-18T02:17:45.362Z,506.00
2023-04-18T02:18:45.393Z,503.00
2023-04-18T02:19:45.429Z,502.00
2023-04-18T02:20:45.464Z,503.00
2023-04-18T02:21:45.512Z,504.00
2023-04-18T02:22:45.547Z,507.00
2023-04-18T02:23:45.594Z,503.00
2023-04-18T02:24:45.616Z,507.00
2023-04-18T02:25:45.674Z,505.00
2023-04-18T02:26:45.669Z,509.00
2023-04-18T02:27:45.727Z,509.00
2023-04-18T02:28:45.747Z,504.00
2023-04-18T02:29:45.750Z,504.00
2023-04-18T02:30:45.769Z,504.00
2023-04-18T02:31:45.852Z,506.00
2023-04-18T02:32:45.864Z,507.00
2023-04-18T02:33:45.841Z,503.00
2023-04-18T02:34:45.897Z,510.00
2023-04-18T02:35:45.843Z,505.00
2023-04-18T02:36:45.889Z,514.00
2023-04-18T02:37:45.853Z,510.00
2023-04-18T02:38:45.882Z,505.00
2023-04-18T02:39:45.875Z,506.00
2023-04-18T02:40:45.900Z,506.00
2023-04-18T02:41:45.871Z,502.00
2023-04-18T02:42:45.915Z,504.00
2023-04-18T02:43:45.891Z,505.00
2023-04-18T02:44:45.893Z,506.00
2023-04-18T02:45:45.920Z,507.00
2023-04-18T02:46:45.923Z,502.00
2023-04-18T02:47:54.462Z,508.00
2023-04-18T02:48:46.872Z,508.00
2023-04-18T02:49:45.860Z,508.00
2023-04-18T02:50:45.858Z,509.00
2023-04-18T02:51:45.853Z,503.00
2023-04-18T02:52:45.870Z,506.00
2023-04-18T02:53:45.862Z,510.00
2023-04-18T02:54:45.847Z,500.00
2023-04-18T02:55:45.829Z,502.00
2023-04-18T02:56:45.847Z,505.00
2023-04-18T02:57:45.831Z,500.00
2023-04-18T02:58:45.836Z,510.00
2023-04-18T02:59:45.828Z,506.00
2023-04-18T03:00:45.810Z,506.00
2023-04-18T03:01:45.820Z,508.00
2023-04-18T03:02:45.952Z,502.00
2023-04-18T03:03:45.790Z,500.00
2023-04-18T03:04:45.790Z,506.00
2023-04-18T03:05:45.798Z,508.00
2023-04-18T03:06:45.776Z,500.00
2023-04-18T03:07:45.793Z,503.00
2023-04-18T03:08:45.787Z,513.00
2023-04-18T03:09:45.750Z,506.00
2023-04-18T03:10:45.746Z,504.00
2023-04-18T03:11:45.770Z,506.00
2023-04-18T03:12:45.742Z,511.00
2023-04-18T03:13:45.746Z,507.00
2023-04-18T03:14:45.733Z,512.00
2023-04-18T03:15:45.739Z,506.00
2023-04-18T03:16:45.723Z,501.00
2023-04-18T03:17:45.750Z,503.00
2023-04-18T03:18:45.679Z,506.00
2023-04-18T03:19:45.688Z,507.00
2023-04-18T03:20:45.688Z,505.00
2023-04-18T03:21:45.702Z,507.00
2023-04-18T03:22:45.681Z,510.00
2023-04-18T03:23:45.677Z,510.00
2023-04-18T03:24:45.638Z,510.00
2023-04-18T03:25:45.662Z,504.00
2023-04-18T03:26:45.661Z,502.00
2023-04-18T03:27:45.651Z,501.00
2023-04-18T03:28:45.632Z,512.00
2023-04-18T03:29:45.653Z,510.00
2023-04-18T03:30:45.605Z,509.00
2023-04-18T03:31:45.795Z,503.00
2023-04-18T03:32:45.696Z,503.00
2023-04-18T03:33:45.627Z,502.00
2023-04-18T03:34:45.608Z,507.00
2023-04-18T03:35:45.615Z,507.00
2023-04-18T03:36:47.289Z,504.00
2023-04-18T03:37:45.678Z,504.00
2023-04-18T03:38:45.744Z,504.00
2023-04-18T03:39:45.768Z,508.00
2023-04-18T03:40:45.750Z,509.00
2023-04-18T03:41:45.792Z,509.00
2023-04-18T03:42:45.832Z,506.00
2023-04-18T03:43:45.820Z,500.00
2023-04-18T03:44:45.873Z,505.00
2023-04-18T03:45:45.980Z,500.00
2023-04-18T03:46:45.996Z,503.00
2023-04-18T03:47:45.951Z,500.00
2023-04-18T03:48:45.946Z,503.00
2023-04-18T03:49:45.982Z,506.00
2023-04-18T03:50:45.991Z,506.00
2023-04-18T03:51:46.050Z,505.00
2023-04-18T03:52:46.054Z,502.00
2023-04-18T03:53:46.109Z,508.00
2023-04-18T03:54:46.111Z,507.00
2023-04-18T03:55:46.158Z,506.00
2023-04-18T03:56:46.199Z,504.00
2023-04-18T03:57:46.273Z,504.00
2023-04-18T03:58:46.301Z,503.00
2023-04-18T03:59:47.867Z,511.00
2023-04-18T04:00:46.433Z,506.00
2023-04-18T04:01:46.526Z,503.00
2023-04-18T04:02:46.607Z,504.00
2023-04-18T04:03:46.806Z,505.00
2023-04-18T04:04:46.651Z,506.00
2023-04-18T04:05:46.680Z,504.00
2023-04-18T04:06:46.685Z,507.00
2023-04-18T04:07:46.783Z,507.00
2023-04-18T04:08:46.836Z,507.00
2023-04-18T04:09:46.872Z,504.00
2023-04-18T04:10:46.917Z,503.00
2023-04-18T04:11:46.996Z,508.00
2023-04-18T04:12:47.069Z,507.00
2023-04-18T04:13:47.153Z,505.00
2023-04-18T04:14:47.204Z,505.00
2023-04-18T04:15:47.289Z,501.00
2023-04-18T04:16:47.370Z,508.00
2023-04-18T04:17:47.408Z,507.00
2023-04-18T04:18:47.483Z,503.00
2023-04-18T04:19:47.499Z,513.00
2023-04-18T04:20:47.583Z,505.00
2023-04-18T04:21:47.679Z,508.00
2023-04-18T04:22:47.710Z,503.00
2023-04-18T04:23:47.788Z,510.00
2023-04-18T04:24:47.822Z,504.00
2023-04-18T04:25:47.900Z,505.00
2023-04-18T04:26:47.968Z,505.00
2023-04-18T04:27:48.014Z,506.00
2023-04-18T04:28:48.081Z,504.00
2023-04-18T04:29:48.141Z,505.00
2023-04-18T04:30:48.225Z,502.00
2023-04-18T04:31:48.293Z,505.00
2023-04-18T04:32:48.408Z,501.00
2023-04-18T04:33:48.382Z,507.00
2023-04-18T04:34:48.432Z,506.00
2023-04-18T04:35:48.508Z,504.00
2023-04-18T04:36:48.599Z,504.00
2023-04-18T04:37:48.665Z,500.00
2023-04-18T04:38:48.713Z,506.00
2023-04-18T04:39:48.755Z,503.00
2023-04-18T04:40:48.832Z,509.00
2023-04-18T04:41:48.877Z,508.00
2023-04-18T04:42:48.971Z,509.00
2023-04-18T04:43:48.995Z,505.00
2023-04-18T04:44:49.142Z,509.00
2023-04-18T04:45:49.168Z,507.00
2023-04-18T04:46:49.189Z,506.00
2023-04-18T04:47:49.297Z,505.00
2023-04-18T04:48:49.311Z,506.00
2023-04-18T04:49:49.346Z,504.00
2023-04-18T04:50:49.430Z,503.00
2023-04-18T04:51:49.487Z,507.00
2023-04-18T04:52:49.554Z,505.00
2023-04-18T04:53:49.570Z,505.00
2023-04-18T04:54:49.634Z,506.00
2023-04-18T04:55:49.726Z,511.00
2023-04-18T04:56:49.787Z,505.00
2023-04-18T04:57:49.833Z,506.00
2023-04-18T04:58:49.884Z,505.00
2023-04-18T04:59:49.936Z,506.00
2023-04-18T05:00:57.016Z,507.00
2023-04-18T05:01:50.054Z,507.00
2023-04-18T05:02:50.201Z,508.00
2023-04-18T05:03:50.240Z,509.00
2023-04-18T05:04:49.950Z,509.00
2023-04-18T05:05:49.969Z,505.00
2023-04-18T05:06:49.937Z,508.00
2023-04-18T05:07:49.951Z,505.00
2023-04-18T05:08:49.936Z,502.00
2023-04-18T05:09:49.935Z,508.00
2023-04-18T05:10:49.938Z,510.00
2023-04-18T05:11:49.942Z,502.00
2023-04-18T05:12:49.955Z,504.00
2023-04-18T05:13:49.919Z,506.00
2023-04-18T05:14:49.908Z,509.00
2023-04-18T05:15:49.918Z,505.00
2023-04-18T05:16:49.907Z,504.00
2023-04-18T05:17:50.104Z,500.00
2023-04-18T05:18:49.895Z,505.00
2023-04-18T05:19:49.867Z,510.00
2023-04-18T05:20:49.891Z,500.00
2023-04-18T05:21:49.876Z,506.00
2023-04-18T05:22:49.885Z,505.00
2023-04-18T05:23:49.874Z,505.00
2023-04-18T05:24:49.899Z,509.00
2023-04-18T05:25:49.847Z,500.00
2023-04-18T05:26:49.867Z,507.00
2023-04-18T05:27:49.904Z,509.00
2023-04-18T05:28:49.920Z,507.00
2023-04-18T05:29:49.922Z,509.00
2023-04-18T05:30:49.979Z,508.00
2023-04-18T05:31:49.952Z,504.00
2023-04-18T05:32:50.012Z,508.00
2023-04-18T05:33:50.000Z,503.00
2023-04-18T05:34:50.026Z,509.00
2023-04-18T05:35:50.027Z,521.00
2023-04-18T05:36:50.021Z,511.00
2023-04-18T05:37:50.033Z,500.00
2023-04-18T05:38:50.348Z,500.00
2023-04-18T05:39:50.048Z,501.00
2023-04-18T05:40:50.006Z,506.00
2023-04-18T05:41:50.064Z,506.00
2023-04-18T05:42:50.085Z,514.00
2023-04-18T05:44:01.893Z,511.00
2023-04-18T05:44:51.057Z,513.00
2023-04-18T05:47:09.413Z,500.00
2023-04-18T05:48:09.253Z,500.00
2023-04-18T05:49:09.271Z,500.00
2023-04-18T05:50:09.180Z,500.00
2023-04-18T05:51:10.579Z,500.00
2023-04-18T05:52:09.130Z,502.00
2023-04-18T05:53:09.140Z,504.00
2023-04-18T05:54:09.134Z,526.00
2023-04-18T05:55:09.250Z,575.00
2023-04-18T05:56:09.134Z,546.00
2023-04-18T05:57:09.105Z,577.00
2023-04-18T05:58:09.115Z,570.00
2023-04-18T05:59:09.124Z,546.00
2023-04-18T06:00:09.124Z,530.00
2023-04-18T06:01:09.127Z,519.00
2023-04-18T06:02:09.184Z,570.00
2023-04-18T06:03:10.831Z,571.00
2023-04-18T06:04:09.261Z,551.00
2023-04-18T06:05:09.358Z,556.00
2023-04-18T06:06:09.124Z,641.00
2023-04-18T06:07:09.100Z,649.00
2023-04-18T06:08:09.064Z,1003.00
2023-04-18T06:09:09.087Z,777.00
2023-04-18T06:10:09.190Z,669.00
2023-04-18T06:11:09.202Z,693.00
2023-04-18T06:12:09.276Z,695.00
2023-04-18T06:13:09.307Z,728.00
2023-04-18T06:14:09.415Z,750.00
2023-04-18T06:15:09.437Z,736.00
2023-04-18T06:16:09.524Z,767.00
2023-04-18T06:17:09.556Z,785.00
2023-04-18T06:18:09.637Z,726.00
2023-04-18T06:19:09.701Z,697.00
2023-04-18T06:20:09.734Z,716.00
2023-04-18T06:21:09.776Z,724.00
2023-04-18T06:22:09.848Z,765.00
2023-04-18T06:23:09.873Z,777.00
2023-04-18T06:24:10.397Z,784.00
2023-04-18T06:25:09.946Z,816.00
2023-04-18T06:26:09.994Z,837.00
2023-04-18T06:27:20.475Z,856.00
2023-04-18T06:28:10.961Z,859.00
2023-04-18T06:29:10.005Z,866.00
2023-04-18T06:30:10.010Z,892.00
2023-04-18T06:31:09.989Z,931.00
2023-04-18T06:32:09.953Z,1004.00
2023-04-18T06:33:09.978Z,1016.00
2023-04-18T06:34:09.928Z,1056.00
2023-04-18T06:35:09.957Z,1069.00
2023-04-18T06:36:09.946Z,1075.00
2023-04-18T06:37:09.931Z,1086.00
2023-04-18T06:38:09.917Z,1116.00
2023-04-18T06:39:10.575Z,1192.00
2023-04-18T06:40:09.936Z,1100.00
2023-04-18T06:41:09.923Z,1124.00
2023-04-18T06:42:09.907Z,1113.00
2023-04-18T06:43:09.889Z,1307.00
2023-04-18T06:44:09.909Z,1412.00
2023-04-18T06:45:09.877Z,1621.00
2023-04-18T06:46:09.946Z,1526.00
2023-04-18T06:47:09.856Z,1390.00
2023-04-18T06:48:09.983Z,1408.00
2023-04-18T06:49:09.888Z,1428.00
2023-04-18T06:50:09.844Z,1461.00
2023-04-18T06:51:09.983Z,1465.00
2023-04-18T06:52:09.935Z,1461.00
2023-04-18T06:53:09.982Z,1456.00
2023-04-18T06:54:10.045Z,1485.00
2023-04-18T06:55:10.181Z,1529.00
2023-04-18T06:56:10.146Z,1534.00
2023-04-18T06:57:10.162Z,1563.00
2023-04-18T06:58:10.243Z,1582.00
2023-04-18T06:59:10.265Z,1597.00
2023-04-18T07:00:10.378Z,1626.00
2023-04-18T07:01:10.458Z,1618.00
2023-04-18T07:02:10.512Z,1632.00
2023-04-18T07:03:11.352Z,1658.00
2023-04-18T07:04:10.822Z,1683.00
2023-04-18T07:05:10.615Z,1672.00
2023-04-18T07:06:10.733Z,1709.00
2023-04-18T07:07:10.783Z,1733.00
2023-04-18T07:08:10.842Z,1751.00
2023-04-18T07:09:11.406Z,1755.00
2023-04-18T07:10:10.990Z,1753.00
2023-04-18T07:11:11.144Z,1766.00
2023-04-18T07:12:11.123Z,1793.00
2023-04-18T07:13:11.163Z,1806.00
2023-04-18T07:14:11.455Z,1792.00
2023-04-18T07:15:11.244Z,1818.00
2023-04-18T07:16:11.307Z,1833.00
2023-04-18T07:17:11.386Z,1853.00
2023-04-18T07:18:11.442Z,1861.00
2023-04-18T07:19:11.449Z,1851.00
2023-04-18T07:20:12.358Z,1871.00
2023-04-18T07:21:11.547Z,1902.00
2023-04-18T07:22:11.558Z,1922.00
2023-04-18T07:23:11.640Z,1920.00
2023-04-18T07:24:11.808Z,1954.00
2023-04-18T07:25:11.724Z,2002.00
2023-04-18T07:26:11.790Z,1997.00
2023-04-18T07:27:11.844Z,2017.00
2023-04-18T07:28:11.910Z,2056.00
2023-04-18T07:29:11.912Z,2044.00
2023-04-18T07:30:11.948Z,2103.00
2023-04-18T07:31:11.997Z,2095.00
2023-04-18T07:32:12.030Z,2083.00
2023-04-18T07:33:12.137Z,2107.00
2023-04-18T07:34:12.572Z,2138.00
2023-04-18T07:35:12.211Z,2129.00
2023-04-18T07:36:12.262Z,2134.00
2023-04-18T07:37:14.618Z,2112.00
2023-04-18T07:38:12.522Z,2085.00
2023-04-18T07:39:12.669Z,1992.00
2023-04-18T07:40:12.652Z,1904.00
2023-04-18T07:41:12.693Z,1856.00
2023-04-18T07:42:12.702Z,1702.00
2023-04-18T07:43:12.883Z,1600.00
2023-04-18T07:44:13.253Z,1376.00
2023-04-18T07:45:12.752Z,1463.00
2023-04-18T07:46:12.801Z,1435.00
2023-04-18T07:47:12.795Z,1307.00
2023-04-18T07:48:12.921Z,1196.00
2023-04-18T07:49:13.169Z,1083.00
2023-04-18T07:50:12.897Z,1230.00
2023-04-18T07:51:12.922Z,1258.00
2023-04-18T07:52:12.936Z,1238.00
2023-04-18T07:53:12.971Z,1260.00
2023-04-18T07:54:13.020Z,1439.00
2023-04-18T07:55:13.014Z,1630.00
2023-04-18T07:56:13.068Z,1265.00
2023-04-18T07:57:13.056Z,1417.00
2023-04-18T07:58:13.120Z,1211.00
2023-04-18T07:59:13.457Z,1161.00
2023-04-18T08:00:13.135Z,1298.00
2023-04-18T08:01:13.144Z,976.00
2023-04-18T08:02:13.201Z,765.00
2023-04-18T08:03:13.580Z,646.00
2023-04-18T08:04:13.356Z,677.00
2023-04-18T08:05:13.261Z,568.00
2023-04-18T08:06:13.214Z,582.00
2023-04-18T08:07:13.233Z,558.00
2023-04-18T08:08:13.318Z,569.00
2023-04-18T08:09:13.591Z,518.00
2023-04-18T08:10:13.347Z,512.00
2023-04-18T08:11:13.343Z,542.00
2023-04-18T08:12:13.399Z,602.00
2023-04-18T08:13:13.373Z,581.00
2023-04-18T08:14:13.386Z,558.00
2023-04-18T08:15:13.454Z,562.00
2023-04-18T08:16:15.505Z,585.00
2023-04-18T08:17:13.418Z,556.00
2023-04-18T08:18:13.413Z,571.00
2023-04-18T08:19:13.751Z,550.00
2023-04-18T08:20:13.437Z,571.00
2023-04-18T08:21:13.450Z,589.00
2023-04-18T08:22:13.384Z,598.00
2023-04-18T08:23:13.549Z,617.00
2023-04-18T08:24:13.366Z,635.00
2023-04-18T08:25:13.413Z,651.00
2023-04-18T08:26:13.382Z,661.00
2023-04-18T08:27:13.354Z,689.00
2023-04-18T08:28:13.347Z,702.00
2023-04-18T08:29:13.624Z,780.00
2023-04-18T08:30:13.346Z,871.00
2023-04-18T08:31:13.442Z,892.00
2023-04-18T08:32:13.353Z,924.00
2023-04-18T08:33:13.322Z,984.00
2023-04-18T08:34:13.354Z,857.00
2023-04-18T08:35:13.294Z,841.00
2023-04-18T08:36:13.302Z,793.00
2023-04-18T08:37:13.305Z,775.00
2023-04-18T08:38:13.298Z,760.00
2023-04-18T08:39:13.553Z,745.00
2023-04-18T08:40:13.345Z,735.00
2023-04-18T08:41:13.243Z,736.00
2023-04-18T08:42:13.250Z,728.00
2023-04-18T08:43:13.255Z,718.00
2023-04-18T08:44:13.404Z,705.00
2023-04-18T08:45:13.220Z,685.00
2023-04-18T08:46:13.266Z,679.00
2023-04-18T08:47:14.116Z,672.00
2023-04-18T08:48:13.235Z,659.00
2023-04-18T08:49:13.630Z,659.00
2023-04-18T08:50:13.489Z,655.00
2023-04-18T08:51:13.183Z,648.00
2023-04-18T08:52:13.217Z,425.00
2023-04-18T08:53:13.250Z,400.00
2023-04-18T08:54:13.259Z,400.00
2023-04-18T08:55:13.221Z,436.00
2023-04-18T08:56:13.264Z,512.00
2023-04-18T08:57:13.311Z,519.00
2023-04-18T08:58:13.395Z,586.00
2023-04-18T08:59:13.791Z,513.00
2023-04-18T09:00:13.970Z,563.00
2023-04-18T09:01:13.624Z,626.00
2023-04-18T09:02:13.517Z,649.00
2023-04-18T09:03:13.550Z,688.00
2023-04-18T09:04:13.594Z,761.00
2023-04-18T09:05:13.529Z,875.00
2023-04-18T09:06:13.565Z,659.00
2023-04-18T09:07:13.500Z,747.00
2023-04-18T09:08:13.484Z,696.00
2023-04-18T09:09:13.907Z,859.00
2023-04-18T09:10:13.996Z,876.00
2023-04-18T09:11:13.546Z,896.00
2023-04-18T09:12:13.590Z,914.00
2023-04-18T09:13:13.589Z,883.00
2023-04-18T09:14:13.700Z,723.00
2023-04-18T09:15:13.619Z,678.00
2023-04-18T09:16:13.660Z,661.00
2023-04-18T09:17:13.617Z,772.00
2023-04-18T09:18:13.687Z,862.00
2023-04-18T09:19:13.990Z,836.00
2023-04-18T09:20:13.713Z,807.00
2023-04-18T09:21:13.748Z,757.00
2023-04-18T09:22:13.805Z,618.00
2023-04-18T09:23:13.838Z,684.00
2023-04-18T09:24:14.005Z,658.00
2023-04-18T09:25:13.856Z,639.00
2023-04-18T09:26:13.914Z,705.00
2023-04-18T09:27:13.947Z,784.00
2023-04-18T09:28:14.025Z,842.00
2023-04-18T09:29:14.182Z,806.00
2023-04-18T09:30:14.138Z,857.00
2023-04-18T09:31:14.243Z,886.00
2023-04-18T09:32:14.324Z,938.00
2023-04-18T09:33:14.193Z,946.00
2023-04-18T09:34:14.576Z,957.00
2023-04-18T09:35:14.480Z,970.00
2023-04-18T09:36:14.299Z,902.00
2023-04-18T09:37:14.412Z,934.00
2023-04-18T09:38:14.405Z,949.00
2023-04-18T09:39:14.519Z,960.00
2023-04-18T09:40:14.459Z,931.00
2023-04-18T09:41:14.440Z,1003.00
2023-04-18T09:42:14.434Z,995.00
2023-04-18T09:43:14.514Z,956.00
2023-04-18T09:44:15.540Z,1124.00
2023-04-18T09:45:15.004Z,1066.00
2023-04-18T09:46:14.641Z,1093.00
2023-04-18T09:47:14.623Z,1171.00
2023-04-18T09:48:14.656Z,1512.00
2023-04-18T09:49:15.010Z,1516.00
2023-04-18T09:50:14.984Z,1608.00
2023-04-18T09:51:14.845Z,1638.00
2023-04-18T09:52:15.487Z,1632.00
2023-04-18T09:53:14.758Z,1342.00
2023-04-18T09:54:14.979Z,1280.00
2023-04-18T09:55:14.841Z,1144.00
2023-04-18T09:56:14.887Z,1056.00
2023-04-18T09:57:14.921Z,962.00
2023-04-18T09:58:14.939Z,892.00
2023-04-18T09:59:15.259Z,895.00
2023-04-18T10:00:15.491Z,866.00
2023-04-18T10:01:15.116Z,854.00
2023-04-18T10:02:15.168Z,866.00
2023-04-18T10:03:15.311Z,824.00
2023-04-18T10:04:15.556Z,767.00
2023-04-18T10:05:15.321Z,689.00
2023-04-18T10:06:15.347Z,685.00
2023-04-18T10:07:15.358Z,660.00
2023-04-18T10:08:15.427Z,660.00
2023-04-18T10:09:15.803Z,646.00
2023-04-18T10:10:15.450Z,633.00
2023-04-18T10:11:15.471Z,628.00
2023-04-18T10:12:15.422Z,608.00
2023-04-18T10:13:15.466Z,627.00
2023-04-18T10:14:15.697Z,611.00
2023-04-18T10:15:15.488Z,573.00
2023-04-18T10:16:15.530Z,565.00
2023-04-18T10:17:15.422Z,559.00
2023-04-18T10:18:15.530Z,563.00
2023-04-18T10:19:15.640Z,548.00
2023-04-18T10:20:15.440Z,551.00
2023-04-18T10:21:15.480Z,534.00
2023-04-18T10:22:15.459Z,541.00
2023-04-18T10:23:15.476Z,515.00
2023-04-18T10:24:15.640Z,518.00
2023-04-18T10:25:15.570Z,505.00
2023-04-18T10:26:15.470Z,504.00
2023-04-18T10:27:15.495Z,506.00
2023-04-18T10:28:15.458Z,500.00
2023-04-18T10:29:15.616Z,510.00
2023-04-18T10:30:15.564Z,524.00
2023-04-18T10:31:16.060Z,522.00
2023-04-18T10:32:15.585Z,544.00
2023-04-18T10:33:25.611Z,571.00
2023-04-18T10:34:16.574Z,572.00
2023-04-18T10:35:16.488Z,646.00
2023-04-18T10:36:16.004Z,1010.00
2023-04-18T10:37:15.542Z,1948.00
2023-04-18T10:38:15.556Z,1597.00
2023-04-18T10:39:15.513Z,1717.00
2023-04-18T10:40:15.527Z,1743.00
2023-04-18T10:41:16.077Z,1595.00
2023-04-18T10:42:15.532Z,1705.00
2023-04-18T10:43:15.491Z,1616.00
2023-04-18T10:44:15.985Z,1638.00
2023-04-18T10:45:15.481Z,1663.00
2023-04-18T10:46:28.333Z,1684.00
2023-04-18T10:47:16.484Z,1685.00
2023-04-18T10:48:15.426Z,1689.00
2023-04-18T10:49:15.714Z,1712.00
2023-04-18T10:50:15.379Z,1737.00
2023-04-18T10:51:15.491Z,1807.00
2023-04-18T10:52:15.504Z,1839.00
2023-04-18T10:53:15.272Z,1882.00
2023-04-18T10:54:15.400Z,1843.00
2023-04-18T10:55:15.299Z,1888.00
2023-04-18T10:56:15.299Z,1870.00
2023-04-18T10:57:15.314Z,1807.00
2023-04-18T10:58:15.345Z,1729.00
2023-04-18T10:59:15.409Z,1697.00
2023-04-18T11:00:15.428Z,1591.00
2023-04-18T11:01:15.543Z,1622.00
2023-04-18T11:02:15.528Z,1671.00
2023-04-18T11:03:15.660Z,1712.00
2023-04-18T11:04:16.806Z,1728.00
2023-04-18T11:05:15.597Z,1712.00
2023-04-18T11:06:16.013Z,1720.00
2023-04-18T11:07:15.653Z,1769.00
2023-04-18T11:08:15.723Z,1785.00
2023-04-18T11:09:15.710Z,1788.00
2023-04-18T11:10:15.734Z,1795.00
2023-04-18T11:11:16.146Z,1788.00
2023-04-18T11:12:15.782Z,1792.00
2023-04-18T11:13:15.826Z,1772.00
2023-04-18T11:14:16.159Z,1793.00
2023-04-18T11:15:16.113Z,1825.00
2023-04-18T11:16:15.941Z,1827.00
2023-04-18T11:17:15.952Z,1858.00
2023-04-18T11:18:16.002Z,1879.00
2023-04-18T11:19:15.960Z,1875.00
2023-04-18T11:20:16.048Z,1865.00
2023-04-18T11:21:16.068Z,1859.00
2023-04-18T11:22:16.068Z,1808.00
2023-04-18T11:23:16.086Z,1833.00
2023-04-18T11:24:16.204Z,1821.00
2023-04-18T11:25:16.148Z,1795.00
2023-04-18T11:26:17.015Z,1761.00
2023-04-18T11:27:16.184Z,1739.00
2023-04-18T11:28:16.195Z,1666.00
2023-04-18T11:29:16.241Z,1794.00
2023-04-18T11:30:16.361Z,1902.00
2023-04-18T11:31:16.551Z,1933.00
2023-04-18T11:32:16.431Z,1941.00
2023-04-18T11:33:16.526Z,1967.00
2023-04-18T11:34:16.453Z,1959.00
2023-04-18T11:35:16.502Z,1951.00
2023-04-18T11:36:17.011Z,1959.00
2023-04-18T11:37:16.583Z,1949.00
2023-04-18T11:38:16.655Z,1969.00
2023-04-18T11:39:16.659Z,1953.00
2023-04-18T11:40:16.695Z,1971.00
2023-04-18T11:41:16.705Z,1942.00
2023-04-18T11:42:16.767Z,1929.00
2023-04-18T11:43:16.829Z,1918.00
2023-04-18T11:44:16.826Z,1921.00
2023-04-18T11:45:16.898Z,1921.00
2023-04-18T11:46:16.934Z,1901.00
2023-04-18T11:47:16.959Z,1917.00
2023-04-18T11:48:16.991Z,1898.00
2023-04-18T11:49:17.021Z,1875.00
2023-04-18T11:50:17.179Z,1866.00
2023-04-18T11:51:17.150Z,1881.00
2023-04-18T11:52:17.184Z,1878.00
2023-04-18T11:53:17.234Z,1862.00
2023-04-18T11:54:17.265Z,1870.00
2023-04-18T11:55:17.544Z,1874.00
2023-04-18T11:56:17.404Z,1868.00
2023-04-18T11:57:17.422Z,1842.00
2023-04-18T11:58:17.471Z,1855.00
2023-04-18T11:59:17.538Z,1853.00
2023-04-18T12:00:17.554Z,1831.00
2023-04-18T12:01:17.574Z,1817.00
2023-04-18T12:02:18.121Z,1797.00
2023-04-18T12:03:17.835Z,1801.00
2023-04-18T12:04:18.134Z,1798.00
2023-04-18T12:05:17.968Z,1764.00
2023-04-18T12:06:17.860Z,1758.00
2023-04-18T12:07:17.820Z,1758.00
2023-04-18T12:08:17.848Z,1751.00
2023-04-18T12:09:17.857Z,1739.00
2023-04-18T12:10:17.934Z,1733.00
2023-04-18T12:11:17.977Z,1728.00
2023-04-18T12:12:18.971Z,1716.00
2023-04-18T12:13:18.013Z,1719.00
2023-04-18T12:14:18.082Z,1729.00
2023-04-18T12:15:18.126Z,1715.00
2023-04-18T12:16:18.160Z,1712.00
2023-04-18T12:17:18.186Z,1684.00
2023-04-18T12:18:18.267Z,1690.00
2023-04-18T12:19:18.264Z,1688.00
2023-04-18T12:20:18.312Z,1682.00
2023-04-18T12:21:18.337Z,1686.00
2023-04-18T12:22:18.390Z,1671.00
2023-04-18T12:23:18.423Z,1670.00